sensor_id;sensor_type;location;lat;lon;timestamp;P1;durP1;ratioP1;P2;durP2;ratioP2
69917;SDS011;57203;42.672;23.334;2024-03-02T00:00:48;34.0;;;18.4;;
69917;SDS011;57203;42.672;23.334;2024-03-02T00:01:45;31.1;;;19.4;;
69917;SDS011;57203;42.672;23.334;2024-03-02T00:02:46;31.1;;;20.4;;
69917;SDS011;57203;42.672;23.334;2024-03-02T00:03:46;33.9;;;19.2;;
69917;SDS011;57203;42.672;23.334;2024-03-02T00:04:46;31.3;;;19.1;;
69917;SDS011;57203;42.672;23.334;2024-03-02T00:05:48;31.1;;;18.8;;
69917;SDS011;57203;42.672;23.334;2024-03-02T00:06:46;32.8;;;19.4;;
69917;SDS011;57203;42.672;23.334;2024-03-02T00:07:47;31.2;;;18.3;;
69917;SDS011;57203;42.672;23.334;2024-03-02T00:09:47;30.7;;;19.8;;
69917;SDS011;57203;42.672;23.334;2024-03-02T00:10:47;34.7;;;17.6;;
69917;SDS011;57203;42.672;23.334;2024-03-02T00:11:47;29.4;;;18.3;;
69917;SDS011;57203;42.672;23.334;2024-03-02T00:12:48;31.0;;;17.7;;
69917;SDS011;57203;42.672;23.334;2024-03-02T00:13:48;30.2;;;19.0;;
69917;SDS011;57203;42.672;23.334;2024-03-02T00:14:48;30.1;;;18.7;;
69917;SDS011;57203;42.672;23.334;2024-03-02T00:15:50;32.3;;;19.5;;
69917;SDS011;57203;42.672;23.334;2024-03-02T00:16:48;32.3;;;18.1;;
69917;SDS011;57203;42.672;23.334;2024-03-02T00:17:51;31.5;;;18.2;;
69917;SDS011;57203;42.672;23.334;2024-03-02T00:18:49;30.7;;;18.1;;
69917;SDS011;57203;42.672;23.334;2024-03-02T00:19:49;31.0;;;18.4;;
69917;SDS011;57203;42.672;23.334;2024-03-02T00:20:49;31.2;;;18.6;;
69917;SDS011;57203;42.672;23.334;2024-03-02T00:21:49;31.2;;;17.5;;
69917;SDS011;57203;42.672;23.334;2024-03-02T00:22:49;30.8;;;18.2;;
69917;SDS011;57203;42.672;23.334;2024-03-02T00:23:50;31.5;;;19.1;;
69917;SDS011;57203;42.672;23.334;2024-03-02T00:24:50;31.5;;;18.4;;
69917;SDS011;57203;42.672;23.334;2024-03-02T00:25:50;30.9;;;17.9;;
69917;SDS011;57203;42.672;23.334;2024-03-02T00:26:50;30.6;;;18.6;;
69917;SDS011;57203;42.672;23.334;2024-03-02T00:27:50;32.3;;;18.9;;
69917;SDS011;57203;42.672;23.334;2024-03-02T00:28:51;30.0;;;19.9;;
69917;SDS011;57203;42.672;23.334;2024-03-02T00:29:51;34.4;;;19.0;;
69917;SDS011;57203;42.672;23.334;2024-03-02T00:30:52;32.2;;;20.1;;
69917;SDS011;57203;42.672;23.334;2024-03-02T00:31:51;30.9;;;18.6;;
69917;SDS011;57203;42.672;23.334;2024-03-02T00:32:51;30.9;;;19.0;;
69917;SDS011;57203;42.672;23.334;2024-03-02T00:33:52;32.3;;;19.5;;
69917;SDS011;57203;42.672;23.334;2024-03-02T00:34:52;32.3;;;19.3;;
69917;SDS011;57203;42.672;23.334;2024-03-02T00:35:52;32.7;;;20.2;;
69917;SDS011;57203;42.672;23.334;2024-03-02T00:36:52;32.7;;;19.9;;
69917;SDS011;57203;42.672;23.334;2024-03-02T00:37:52;32.0;;;20.2;;
69917;SDS011;57203;42.672;23.334;2024-03-02T00:38:53;41.6;;;23.4;;
69917;SDS011;57203;42.672;23.334;2024-03-02T00:39:53;41.6;;;20.3;;
69917;SDS011;57203;42.672;23.334;2024-03-02T00:40:53;34.1;;;19.0;;
69917;SDS011;57203;42.672;23.334;2024-03-02T00:41:53;31.2;;;19.1;;
69917;SDS011;57203;42.672;23.334;2024-03-02T00:42:53;30.9;;;18.3;;
69917;SDS011;57203;42.672;23.334;2024-03-02T00:43:57;31.1;;;18.6;;
69917;SDS011;57203;42.672;23.334;2024-03-02T00:44:54;31.1;;;19.4;;
69917;SDS011;57203;42.672;23.334;2024-03-02T00:45:54;31.4;;;18.2;;
69917;SDS011;57203;42.672;23.334;2024-03-02T00:46:54;29.5;;;17.8;;
69917;SDS011;57203;42.672;23.334;2024-03-02T00:47:54;29.6;;;19.2;;
69917;SDS011;57203;42.672;23.334;2024-03-02T00:48:55;32.5;;;18.2;;
69917;SDS011;57203;42.672;23.334;2024-03-02T00:49:55;28.4;;;17.4;;
69917;SDS011;57203;42.672;23.334;2024-03-02T00:50:55;27.7;;;16.7;;
69917;SDS011;57203;42.672;23.334;2024-03-02T00:51:55;27.7;;;16.6;;
69917;SDS011;57203;42.672;23.334;2024-03-02T00:52:55;27.6;;;15.8;;
69917;SDS011;57203;42.672;23.334;2024-03-02T00:53:57;26.6;;;17.1;;
69917;SDS011;57203;42.672;23.334;2024-03-02T00:55:56;28.6;;;18.5;;
69917;SDS011;57203;42.672;23.334;2024-03-02T00:56:56;28.6;;;18.2;;
69917;SDS011;57203;42.672;23.334;2024-03-02T00:57:56;29.4;;;18.1;;
69917;SDS011;57203;42.672;23.334;2024-03-02T00:58:56;29.4;;;18.3;;
69917;SDS011;57203;42.672;23.334;2024-03-02T00:59:57;30.8;;;18.0;;
69917;SDS011;57203;42.672;23.334;2024-03-02T01:00:57;29.5;;;18.3;;
69917;SDS011;57203;42.672;23.334;2024-03-02T01:01:57;31.9;;;18.7;;
69917;SDS011;57203;42.672;23.334;2024-03-02T01:02:57;30.7;;;17.8;;
69917;SDS011;57203;42.672;23.334;2024-03-02T01:03:57;30.7;;;18.7;;
69917;SDS011;57203;42.672;23.334;2024-03-02T01:04:57;32.9;;;18.6;;
69917;SDS011;57203;42.672;23.334;2024-03-02T01:05:58;29.2;;;17.4;;
69917;SDS011;57203;42.672;23.334;2024-03-02T01:06:58;30.5;;;17.9;;
69917;SDS011;57203;42.672;23.334;2024-03-02T01:07:58;27.1;;;17.2;;
69917;SDS011;57203;42.672;23.334;2024-03-02T01:08:58;27.1;;;17.0;;
69917;SDS011;57203;42.672;23.334;2024-03-02T01:09:58;27.6;;;17.4;;
69917;SDS011;57203;42.672;23.334;2024-03-02T01:10:59;29.1;;;16.9;;
69917;SDS011;57203;42.672;23.334;2024-03-02T01:11:59;29.1;;;16.5;;
69917;SDS011;57203;42.672;23.334;2024-03-02T01:12:59;27.4;;;15.9;;
69917;SDS011;57203;42.672;23.334;2024-03-02T01:13:59;26.8;;;15.6;;
69917;SDS011;57203;42.672;23.334;2024-03-02T01:16:00;27.0;;;15.5;;
69917;SDS011;57203;42.672;23.334;2024-03-02T01:17:00;25.9;;;16.9;;
69917;SDS011;57203;42.672;23.334;2024-03-02T01:18:00;27.4;;;15.5;;
69917;SDS011;57203;42.672;23.334;2024-03-02T01:19:00;25.8;;;15.3;;
69917;SDS011;57203;42.672;23.334;2024-03-02T01:20:00;24.3;;;15.6;;
69917;SDS011;57203;42.672;23.334;2024-03-02T01:21:01;27.3;;;15.4;;
69917;SDS011;57203;42.672;23.334;2024-03-02T01:22:01;26.0;;;16.2;;
69917;SDS011;57203;42.672;23.334;2024-03-02T01:23:01;26.9;;;15.7;;
69917;SDS011;57203;42.672;23.334;2024-03-02T01:24:01;25.0;;;16.6;;
69917;SDS011;57203;42.672;23.334;2024-03-02T01:25:01;26.1;;;16.2;;
69917;SDS011;57203;42.672;23.334;2024-03-02T01:26:02;26.1;;;15.4;;
69917;SDS011;57203;42.672;23.334;2024-03-02T01:27:02;26.1;;;15.6;;
69917;SDS011;57203;42.672;23.334;2024-03-02T01:28:02;25.1;;;14.7;;
69917;SDS011;57203;42.672;23.334;2024-03-02T01:29:02;25.1;;;16.1;;
69917;SDS011;57203;42.672;23.334;2024-03-02T01:30:02;26.9;;;16.7;;
69917;SDS011;57203;42.672;23.334;2024-03-02T01:31:03;29.4;;;15.9;;
69917;SDS011;57203;42.672;23.334;2024-03-02T01:32:03;24.2;;;16.6;;
69917;SDS011;57203;42.672;23.334;2024-03-02T01:33:03;27.0;;;16.3;;
69917;SDS011;57203;42.672;23.334;2024-03-02T01:34:03;27.1;;;16.8;;
69917;SDS011;57203;42.672;23.334;2024-03-02T01:35:03;27.1;;;15.8;;
69917;SDS011;57203;42.672;23.334;2024-03-02T01:36:04;30.3;;;17.1;;
69917;SDS011;57203;42.672;23.334;2024-03-02T01:37:04;26.5;;;16.4;;
69917;SDS011;57203;42.672;23.334;2024-03-02T01:38:04;26.3;;;16.1;;
69917;SDS011;57203;42.672;23.334;2024-03-02T01:39:04;26.3;;;17.3;;
69917;SDS011;57203;42.672;23.334;2024-03-02T01:40:05;26.7;;;17.1;;
69917;SDS011;57203;42.672;23.334;2024-03-02T01:41:04;28.4;;;18.0;;
69917;SDS011;57203;42.672;23.334;2024-03-02T01:42:05;30.9;;;16.9;;
69917;SDS011;57203;42.672;23.334;2024-03-02T01:43:05;26.9;;;18.3;;
69917;SDS011;57203;42.672;23.334;2024-03-02T01:44:05;29.6;;;18.7;;
69917;SDS011;57203;42.672;23.334;2024-03-02T01:45:05;29.6;;;18.1;;
69917;SDS011;57203;42.672;23.334;2024-03-02T01:46:05;31.3;;;18.5;;
69917;SDS011;57203;42.672;23.334;2024-03-02T01:47:06;34.5;;;18.9;;
69917;SDS011;57203;42.672;23.334;2024-03-02T01:48:06;30.3;;;17.8;;
69917;SDS011;57203;42.672;23.334;2024-03-02T01:49:06;28.6;;;18.3;;
69917;SDS011;57203;42.672;23.334;2024-03-02T01:50:06;29.1;;;17.4;;
69917;SDS011;57203;42.672;23.334;2024-03-02T01:52:07;27.9;;;17.9;;
69917;SDS011;57203;42.672;23.334;2024-03-02T01:53:07;30.7;;;18.1;;
69917;SDS011;57203;42.672;23.334;2024-03-02T01:54:07;30.7;;;19.5;;
69917;SDS011;57203;42.672;23.334;2024-03-02T01:55:07;28.8;;;18.2;;
69917;SDS011;57203;42.672;23.334;2024-03-02T01:56:07;28.8;;;19.0;;
69917;SDS011;57203;42.672;23.334;2024-03-02T01:57:07;33.6;;;18.8;;
69917;SDS011;57203;42.672;23.334;2024-03-02T01:58:08;32.2;;;18.9;;
69917;SDS011;57203;42.672;23.334;2024-03-02T01:59:08;32.2;;;20.0;;
69917;SDS011;57203;42.672;23.334;2024-03-02T02:00:08;33.3;;;19.0;;
69917;SDS011;57203;42.672;23.334;2024-03-02T02:01:08;33.4;;;19.7;;
69917;SDS011;57203;42.672;23.334;2024-03-02T02:02:08;33.4;;;20.1;;
69917;SDS011;57203;42.672;23.334;2024-03-02T02:03:09;33.8;;;20.4;;
69917;SDS011;57203;42.672;23.334;2024-03-02T02:04:09;35.3;;;19.6;;
69917;SDS011;57203;42.672;23.334;2024-03-02T02:05:09;31.4;;;20.5;;
69917;SDS011;57203;42.672;23.334;2024-03-02T02:06:09;35.8;;;20.9;;
69917;SDS011;57203;42.672;23.334;2024-03-02T02:07:09;35.5;;;21.5;;
69917;SDS011;57203;42.672;23.334;2024-03-02T02:08:09;35.5;;;19.9;;
69917;SDS011;57203;42.672;23.334;2024-03-02T02:09:10;32.4;;;19.8;;
69917;SDS011;57203;42.672;23.334;2024-03-02T02:10:10;35.3;;;20.7;;
69917;SDS011;57203;42.672;23.334;2024-03-02T02:11:10;31.8;;;20.3;;
69917;SDS011;57203;42.672;23.334;2024-03-02T02:12:10;31.8;;;20.9;;
69917;SDS011;57203;42.672;23.334;2024-03-02T02:13:10;34.7;;;21.0;;
69917;SDS011;57203;42.672;23.334;2024-03-02T02:14:11;34.7;;;22.5;;
69917;SDS011;57203;42.672;23.334;2024-03-02T02:16:11;38.0;;;22.2;;
69917;SDS011;57203;42.672;23.334;2024-03-02T02:17:11;37.9;;;21.4;;
69917;SDS011;57203;42.672;23.334;2024-03-02T02:18:11;34.6;;;20.9;;
69917;SDS011;57203;42.672;23.334;2024-03-02T02:19:12;34.6;;;21.6;;
69917;SDS011;57203;42.672;23.334;2024-03-02T02:20:12;34.9;;;22.9;;
69917;SDS011;57203;42.672;23.334;2024-03-02T02:21:12;38.0;;;22.3;;
69917;SDS011;57203;42.672;23.334;2024-03-02T02:22:12;38.3;;;21.5;;
69917;SDS011;57203;42.672;23.334;2024-03-02T02:23:12;36.1;;;21.8;;
69917;SDS011;57203;42.672;23.334;2024-03-02T02:24:13;37.8;;;22.1;;
69917;SDS011;57203;42.672;23.334;2024-03-02T02:25:13;37.3;;;21.6;;
69917;SDS011;57203;42.672;23.334;2024-03-02T02:26:13;37.3;;;22.0;;
69917;SDS011;57203;42.672;23.334;2024-03-02T02:27:13;36.1;;;22.9;;
69917;SDS011;57203;42.672;23.334;2024-03-02T02:28:13;36.1;;;22.6;;
69917;SDS011;57203;42.672;23.334;2024-03-02T02:29:14;38.5;;;22.8;;
69917;SDS011;57203;42.672;23.334;2024-03-02T02:30:14;39.1;;;22.7;;
69917;SDS011;57203;42.672;23.334;2024-03-02T02:31:14;40.2;;;23.0;;
69917;SDS011;57203;42.672;23.334;2024-03-02T02:32:14;35.6;;;21.7;;
69917;SDS011;57203;42.672;23.334;2024-03-02T02:33:15;35.6;;;22.3;;
69917;SDS011;57203;42.672;23.334;2024-03-02T02:34:15;39.8;;;21.2;;
69917;SDS011;57203;42.672;23.334;2024-03-02T02:35:15;35.9;;;21.3;;
69917;SDS011;57203;42.672;23.334;2024-03-02T02:36:15;36.0;;;21.7;;
69917;SDS011;57203;42.672;23.334;2024-03-02T02:37:15;38.7;;;22.9;;
69917;SDS011;57203;42.672;23.334;2024-03-02T02:38:15;38.7;;;21.9;;
69917;SDS011;57203;42.672;23.334;2024-03-02T02:39:16;37.1;;;21.8;;
69917;SDS011;57203;42.672;23.334;2024-03-02T02:40:16;35.1;;;21.3;;
69917;SDS011;57203;42.672;23.334;2024-03-02T02:41:16;38.1;;;22.1;;
69917;SDS011;57203;42.672;23.334;2024-03-02T02:42:16;38.1;;;21.9;;
69917;SDS011;57203;42.672;23.334;2024-03-02T02:45:17;39.8;;;23.0;;
69917;SDS011;57203;42.672;23.334;2024-03-02T02:46:17;36.8;;;22.2;;
69917;SDS011;57203;42.672;23.334;2024-03-02T02:47:17;36.8;;;21.6;;
69917;SDS011;57203;42.672;23.334;2024-03-02T02:49:17;35.6;;;21.4;;
69917;SDS011;57203;42.672;23.334;2024-03-02T02:50:18;34.7;;;22.8;;
69917;SDS011;57203;42.672;23.334;2024-03-02T02:51:18;37.3;;;22.7;;
69917;SDS011;57203;42.672;23.334;2024-03-02T02:52:18;38.8;;;22.2;;
69917;SDS011;57203;42.672;23.334;2024-03-02T02:53:18;39.4;;;21.7;;
69917;SDS011;57203;42.672;23.334;2024-03-02T02:54:18;39.4;;;22.4;;
69917;SDS011;57203;42.672;23.334;2024-03-02T02:55:19;38.3;;;21.6;;
69917;SDS011;57203;42.672;23.334;2024-03-02T02:56:19;38.9;;;22.1;;
69917;SDS011;57203;42.672;23.334;2024-03-02T02:57:19;38.9;;;22.3;;
69917;SDS011;57203;42.672;23.334;2024-03-02T02:58:19;37.6;;;21.8;;
69917;SDS011;57203;42.672;23.334;2024-03-02T02:59:19;38.4;;;22.2;;
69917;SDS011;57203;42.672;23.334;2024-03-02T03:00:20;39.1;;;23.1;;
69917;SDS011;57203;42.672;23.334;2024-03-02T03:01:20;39.2;;;22.7;;
69917;SDS011;57203;42.672;23.334;2024-03-02T03:02:20;39.2;;;23.3;;
69917;SDS011;57203;42.672;23.334;2024-03-02T03:03:20;42.0;;;24.3;;
69917;SDS011;57203;42.672;23.334;2024-03-02T03:05:20;40.5;;;25.7;;
69917;SDS011;57203;42.672;23.334;2024-03-02T03:06:21;42.6;;;27.8;;
69917;SDS011;57203;42.672;23.334;2024-03-02T03:07:21;45.9;;;26.1;;
69917;SDS011;57203;42.672;23.334;2024-03-02T03:08:21;45.4;;;26.4;;
69917;SDS011;57203;42.672;23.334;2024-03-02T03:09:21;44.3;;;26.0;;
69917;SDS011;57203;42.672;23.334;2024-03-02T03:10:21;44.9;;;25.1;;
69917;SDS011;57203;42.672;23.334;2024-03-02T03:11:22;44.9;;;25.0;;
69917;SDS011;57203;42.672;23.334;2024-03-02T03:12:22;46.6;;;27.1;;
69917;SDS011;57203;42.672;23.334;2024-03-02T03:13:22;45.8;;;26.0;;
69917;SDS011;57203;42.672;23.334;2024-03-02T03:14:22;45.8;;;25.4;;
69917;SDS011;57203;42.672;23.334;2024-03-02T03:15:23;44.9;;;26.3;;
69917;SDS011;57203;42.672;23.334;2024-03-02T03:16:23;44.9;;;25.7;;
69917;SDS011;57203;42.672;23.334;2024-03-02T03:17:23;44.3;;;28.8;;
69917;SDS011;57203;42.672;23.334;2024-03-02T03:18:23;55.9;;;30.7;;
69917;SDS011;57203;42.672;23.334;2024-03-02T03:19:23;55.9;;;25.0;;
69917;SDS011;57203;42.672;23.334;2024-03-02T03:20:23;43.5;;;23.4;;
69917;SDS011;57203;42.672;23.334;2024-03-02T03:21:23;44.1;;;24.3;;
69917;SDS011;57203;42.672;23.334;2024-03-02T03:22:24;43.3;;;24.6;;
69917;SDS011;57203;42.672;23.334;2024-03-02T03:23:24;43.3;;;25.1;;
69917;SDS011;57203;42.672;23.334;2024-03-02T03:24:24;43.5;;;26.7;;
69917;SDS011;57203;42.672;23.334;2024-03-02T03:26:24;47.1;;;26.0;;
69917;SDS011;57203;42.672;23.334;2024-03-02T03:27:25;45.0;;;25.5;;
69917;SDS011;57203;42.672;23.334;2024-03-02T03:28:25;45.0;;;26.8;;
69917;SDS011;57203;42.672;23.334;2024-03-02T03:29:25;42.0;;;24.2;;
69917;SDS011;57203;42.672;23.334;2024-03-02T03:30:25;42.0;;;25.1;;
69917;SDS011;57203;42.672;23.334;2024-03-02T03:31:25;45.8;;;25.5;;
69917;SDS011;57203;42.672;23.334;2024-03-02T03:32:26;41.0;;;25.0;;
69917;SDS011;57203;42.672;23.334;2024-03-02T03:33:26;41.0;;;25.6;;
69917;SDS011;57203;42.672;23.334;2024-03-02T03:34:26;43.5;;;24.7;;
69917;SDS011;57203;42.672;23.334;2024-03-02T03:35:26;42.3;;;26.5;;
69917;SDS011;57203;42.672;23.334;2024-03-02T03:36:26;42.3;;;25.3;;
69917;SDS011;57203;42.672;23.334;2024-03-02T03:37:27;43.5;;;25.4;;
69917;SDS011;57203;42.672;23.334;2024-03-02T03:38:27;43.5;;;27.1;;
69917;SDS011;57203;42.672;23.334;2024-03-02T03:39:27;46.6;;;26.6;;
69917;SDS011;57203;42.672;23.334;2024-03-02T03:40:27;44.3;;;30.0;;
69917;SDS011;57203;42.672;23.334;2024-03-02T03:41:27;51.7;;;24.3;;
69917;SDS011;57203;42.672;23.334;2024-03-02T03:42:28;42.6;;;25.0;;
69917;SDS011;57203;42.672;23.334;2024-03-02T03:43:28;42.6;;;25.2;;
69917;SDS011;57203;42.672;23.334;2024-03-02T03:44:28;45.9;;;25.7;;
69917;SDS011;57203;42.672;23.334;2024-03-02T03:45:28;44.4;;;24.7;;
69917;SDS011;57203;42.672;23.334;2024-03-02T03:46:28;43.5;;;25.3;;
69917;SDS011;57203;42.672;23.334;2024-03-02T03:47:28;43.5;;;24.1;;
69917;SDS011;57203;42.672;23.334;2024-03-02T03:48:29;41.0;;;25.6;;
69917;SDS011;57203;42.672;23.334;2024-03-02T03:49:29;44.7;;;24.8;;
69917;SDS011;57203;42.672;23.334;2024-03-02T03:50:29;43.1;;;24.6;;
69917;SDS011;57203;42.672;23.334;2024-03-02T03:51:29;43.1;;;23.7;;
69917;SDS011;57203;42.672;23.334;2024-03-02T03:52:29;42.4;;;24.3;;
69917;SDS011;57203;42.672;23.334;2024-03-02T03:53:30;39.4;;;23.3;;
69917;SDS011;57203;42.672;23.334;2024-03-02T03:54:30;39.6;;;24.2;;
69917;SDS011;57203;42.672;23.334;2024-03-02T03:55:30;39.9;;;22.7;;
69917;SDS011;57203;42.672;23.334;2024-03-02T03:56:30;39.9;;;24.4;;
69917;SDS011;57203;42.672;23.334;2024-03-02T03:57:30;44.5;;;24.1;;
69917;SDS011;57203;42.672;23.334;2024-03-02T03:58:31;41.5;;;23.1;;
69917;SDS011;57203;42.672;23.334;2024-03-02T03:59:31;40.5;;;24.3;;
69917;SDS011;57203;42.672;23.334;2024-03-02T04:00:31;42.3;;;23.1;;
69917;SDS011;57203;42.672;23.334;2024-03-02T04:01:31;41.0;;;22.8;;
69917;SDS011;57203;42.672;23.334;2024-03-02T04:02:31;41.6;;;22.5;;
69917;SDS011;57203;42.672;23.334;2024-03-02T04:03:31;41.6;;;22.8;;
69917;SDS011;57203;42.672;23.334;2024-03-02T04:04:32;38.2;;;21.8;;
69917;SDS011;57203;42.672;23.334;2024-03-02T04:05:32;36.9;;;22.0;;
69917;SDS011;57203;42.672;23.334;2024-03-02T04:06:32;41.8;;;23.4;;
69917;SDS011;57203;42.672;23.334;2024-03-02T04:07:32;41.8;;;24.2;;
69917;SDS011;57203;42.672;23.334;2024-03-02T04:08:32;42.0;;;24.4;;
69917;SDS011;57203;42.672;23.334;2024-03-02T04:09:33;42.8;;;22.3;;
69917;SDS011;57203;42.672;23.334;2024-03-02T04:10:33;37.3;;;22.4;;
69917;SDS011;57203;42.672;23.334;2024-03-02T04:11:35;38.3;;;23.4;;
69917;SDS011;57203;42.672;23.334;2024-03-02T04:12:33;37.7;;;23.5;;
69917;SDS011;57203;42.672;23.334;2024-03-02T04:13:33;37.7;;;22.7;;
69917;SDS011;57203;42.672;23.334;2024-03-02T04:14:34;39.6;;;23.6;;
69917;SDS011;57203;42.672;23.334;2024-03-02T04:15:34;42.4;;;22.9;;
69917;SDS011;57203;42.672;23.334;2024-03-02T04:16:34;42.6;;;24.1;;
69917;SDS011;57203;42.672;23.334;2024-03-02T04:17:34;42.6;;;24.5;;
69917;SDS011;57203;42.672;23.334;2024-03-02T04:18:34;42.0;;;23.9;;
69917;SDS011;57203;42.672;23.334;2024-03-02T04:19:35;38.4;;;23.8;;
69917;SDS011;57203;42.672;23.334;2024-03-02T04:20:35;42.8;;;23.5;;
69917;SDS011;57203;42.672;23.334;2024-03-02T04:21:35;44.4;;;24.3;;
69917;SDS011;57203;42.672;23.334;2024-03-02T04:23:35;41.1;;;24.4;;
69917;SDS011;57203;42.672;23.334;2024-03-02T04:24:36;41.1;;;24.5;;
69917;SDS011;57203;42.672;23.334;2024-03-02T04:25:36;42.5;;;24.3;;
69917;SDS011;57203;42.672;23.334;2024-03-02T04:26:36;41.6;;;23.5;;
69917;SDS011;57203;42.672;23.334;2024-03-02T04:27:36;40.7;;;23.3;;
69917;SDS011;57203;42.672;23.334;2024-03-02T04:28:36;38.6;;;23.7;;
69917;SDS011;57203;42.672;23.334;2024-03-02T04:29:37;35.0;;;22.2;;
69917;SDS011;57203;42.672;23.334;2024-03-02T04:30:37;38.9;;;23.0;;
69917;SDS011;57203;42.672;23.334;2024-03-02T04:31:37;39.5;;;23.1;;
69917;SDS011;57203;42.672;23.334;2024-03-02T04:33:37;45.0;;;22.8;;
69917;SDS011;57203;42.672;23.334;2024-03-02T04:34:37;39.8;;;19.8;;
69917;SDS011;57203;42.672;23.334;2024-03-02T04:35:38;34.8;;;22.8;;
69917;SDS011;57203;42.672;23.334;2024-03-02T04:36:38;39.2;;;21.8;;
69917;SDS011;57203;42.672;23.334;2024-03-02T04:37:38;37.6;;;23.4;;
69917;SDS011;57203;42.672;23.334;2024-03-02T04:38:38;43.5;;;24.1;;
69917;SDS011;57203;42.672;23.334;2024-03-02T04:39:38;41.6;;;24.6;;
69917;SDS011;57203;42.672;23.334;2024-03-02T04:40:39;41.6;;;22.8;;
69917;SDS011;57203;42.672;23.334;2024-03-02T04:41:39;38.1;;;23.4;;
69917;SDS011;57203;42.672;23.334;2024-03-02T04:42:39;39.6;;;22.6;;
69917;SDS011;57203;42.672;23.334;2024-03-02T04:43:39;40.5;;;21.9;;
69917;SDS011;57203;42.672;23.334;2024-03-02T04:44:39;38.5;;;23.4;;
69917;SDS011;57203;42.672;23.334;2024-03-02T04:45:40;40.2;;;23.6;;
69917;SDS011;57203;42.672;23.334;2024-03-02T04:46:40;43.5;;;24.7;;
69917;SDS011;57203;42.672;23.334;2024-03-02T04:47:40;41.2;;;24.0;;
69917;SDS011;57203;42.672;23.334;2024-03-02T04:48:40;41.7;;;25.3;;
69917;SDS011;57203;42.672;23.334;2024-03-02T04:49:40;41.7;;;23.8;;
69917;SDS011;57203;42.672;23.334;2024-03-02T04:50:40;44.4;;;24.3;;
69917;SDS011;57203;42.672;23.334;2024-03-02T04:51:41;41.7;;;24.4;;
69917;SDS011;57203;42.672;23.334;2024-03-02T04:52:41;41.7;;;24.3;;
69917;SDS011;57203;42.672;23.334;2024-03-02T04:53:41;41.4;;;25.3;;
69917;SDS011;57203;42.672;23.334;2024-03-02T04:54:41;45.0;;;25.7;;
69917;SDS011;57203;42.672;23.334;2024-03-02T04:55:41;45.7;;;25.4;;
69917;SDS011;57203;42.672;23.334;2024-03-02T04:56:42;43.7;;;25.0;;
69917;SDS011;57203;42.672;23.334;2024-03-02T04:57:42;45.4;;;25.2;;
69917;SDS011;57203;42.672;23.334;2024-03-02T04:58:42;44.4;;;25.9;;
69917;SDS011;57203;42.672;23.334;2024-03-02T04:59:42;43.0;;;26.4;;
69917;SDS011;57203;42.672;23.334;2024-03-02T05:00:42;45.1;;;25.8;;
69917;SDS011;57203;42.672;23.334;2024-03-02T05:01:43;49.7;;;26.4;;
69917;SDS011;57203;42.672;23.334;2024-03-02T05:02:43;43.4;;;25.8;;
69917;SDS011;57203;42.672;23.334;2024-03-02T05:03:43;45.8;;;26.1;;
69917;SDS011;57203;42.672;23.334;2024-03-02T05:04:43;50.7;;;27.2;;
69917;SDS011;57203;42.672;23.334;2024-03-02T05:05:43;51.5;;;26.8;;
69917;SDS011;57203;42.672;23.334;2024-03-02T05:06:44;51.5;;;27.1;;
69917;SDS011;57203;42.672;23.334;2024-03-02T05:07:44;48.2;;;27.8;;
69917;SDS011;57203;42.672;23.334;2024-03-02T05:08:44;48.2;;;26.9;;
69917;SDS011;57203;42.672;23.334;2024-03-02T05:09:44;53.2;;;28.5;;
69917;SDS011;57203;42.672;23.334;2024-03-02T05:10:44;53.2;;;28.4;;
69917;SDS011;57203;42.672;23.334;2024-03-02T05:11:45;51.8;;;28.0;;
69917;SDS011;57203;42.672;23.334;2024-03-02T05:12:45;52.0;;;29.0;;
69917;SDS011;57203;42.672;23.334;2024-03-02T05:13:45;52.0;;;28.8;;
69917;SDS011;57203;42.672;23.334;2024-03-02T05:14:45;53.6;;;29.5;;
69917;SDS011;57203;42.672;23.334;2024-03-02T05:15:45;55.8;;;29.6;;
69917;SDS011;57203;42.672;23.334;2024-03-02T05:16:45;55.8;;;29.0;;
69917;SDS011;57203;42.672;23.334;2024-03-02T05:17:46;52.3;;;29.7;;
69917;SDS011;57203;42.672;23.334;2024-03-02T05:18:46;56.9;;;29.5;;
69917;SDS011;57203;42.672;23.334;2024-03-02T05:19:46;56.9;;;29.6;;
69917;SDS011;57203;42.672;23.334;2024-03-02T05:20:46;54.5;;;28.9;;
69917;SDS011;57203;42.672;23.334;2024-03-02T05:22:47;55.3;;;29.8;;
69917;SDS011;57203;42.672;23.334;2024-03-02T05:23:47;58.3;;;29.9;;
69917;SDS011;57203;42.672;23.334;2024-03-02T05:24:47;59.9;;;31.9;;
69917;SDS011;57203;42.672;23.334;2024-03-02T05:25:47;59.9;;;30.4;;
69917;SDS011;57203;42.672;23.334;2024-03-02T05:26:47;65.5;;;33.3;;
69917;SDS011;57203;42.672;23.334;2024-03-02T05:27:48;65.5;;;32.7;;
69917;SDS011;57203;42.672;23.334;2024-03-02T05:28:48;60.4;;;33.7;;
69917;SDS011;57203;42.672;23.334;2024-03-02T05:29:48;61.5;;;33.3;;
69917;SDS011;57203;42.672;23.334;2024-03-02T05:30:48;65.1;;;34.6;;
69917;SDS011;57203;42.672;23.334;2024-03-02T05:31:48;65.1;;;34.3;;
69917;SDS011;57203;42.672;23.334;2024-03-02T05:32:49;67.1;;;33.6;;
69917;SDS011;57203;42.672;23.334;2024-03-02T05:33:49;64.0;;;34.3;;
69917;SDS011;57203;42.672;23.334;2024-03-02T05:34:49;98.5;;;49.4;;
69917;SDS011;57203;42.672;23.334;2024-03-02T05:35:49;98.5;;;44.1;;
69917;SDS011;57203;42.672;23.334;2024-03-02T05:36:49;86.9;;;40.3;;
69917;SDS011;57203;42.672;23.334;2024-03-02T05:37:49;70.4;;;37.3;;
69917;SDS011;57203;42.672;23.334;2024-03-02T05:38:50;70.4;;;34.7;;
69917;SDS011;57203;42.672;23.334;2024-03-02T05:39:50;77.1;;;38.7;;
69917;SDS011;57203;42.672;23.334;2024-03-02T05:40:50;77.1;;;37.4;;
69917;SDS011;57203;42.672;23.334;2024-03-02T05:41:50;72.0;;;35.9;;
69917;SDS011;57203;42.672;23.334;2024-03-02T05:42:50;72.0;;;36.2;;
69917;SDS011;57203;42.672;23.334;2024-03-02T05:43:51;70.0;;;35.8;;
69917;SDS011;57203;42.672;23.334;2024-03-02T05:44:51;70.0;;;34.8;;
69917;SDS011;57203;42.672;23.334;2024-03-02T05:45:51;71.0;;;34.1;;
69917;SDS011;57203;42.672;23.334;2024-03-02T05:46:51;65.5;;;36.5;;
69917;SDS011;57203;42.672;23.334;2024-03-02T05:47:51;73.4;;;32.7;;
69917;SDS011;57203;42.672;23.334;2024-03-02T05:48:52;67.6;;;35.8;;
69917;SDS011;57203;42.672;23.334;2024-03-02T05:49:52;67.6;;;35.1;;
69917;SDS011;57203;42.672;23.334;2024-03-02T05:50:52;70.8;;;33.8;;
69917;SDS011;57203;42.672;23.334;2024-03-02T05:51:52;74.0;;;37.3;;
69917;SDS011;57203;42.672;23.334;2024-03-02T05:52:52;74.0;;;35.4;;
69917;SDS011;57203;42.672;23.334;2024-03-02T05:53:53;68.6;;;35.0;;
69917;SDS011;57203;42.672;23.334;2024-03-02T05:54:53;68.6;;;34.6;;
69917;SDS011;57203;42.672;23.334;2024-03-02T05:55:53;68.8;;;33.9;;
69917;SDS011;57203;42.672;23.334;2024-03-02T05:56:53;69.9;;;34.9;;
69917;SDS011;57203;42.672;23.334;2024-03-02T05:57:53;69.9;;;35.2;;
69917;SDS011;57203;42.672;23.334;2024-03-02T05:58:53;72.7;;;34.2;;
69917;SDS011;57203;42.672;23.334;2024-03-02T05:59:54;71.7;;;33.7;;
69917;SDS011;57203;42.672;23.334;2024-03-02T06:00:54;71.7;;;33.8;;
69917;SDS011;57203;42.672;23.334;2024-03-02T06:01:54;68.6;;;32.4;;
69917;SDS011;57203;42.672;23.334;2024-03-02T06:02:54;66.6;;;32.6;;
69917;SDS011;57203;42.672;23.334;2024-03-02T06:03:55;65.8;;;33.6;;
69917;SDS011;57203;42.672;23.334;2024-03-02T06:04:55;67.4;;;31.9;;
69917;SDS011;57203;42.672;23.334;2024-03-02T06:05:55;68.8;;;32.4;;
69917;SDS011;57203;42.672;23.334;2024-03-02T06:06:55;65.9;;;32.0;;
69917;SDS011;57203;42.672;23.334;2024-03-02T06:07:55;66.2;;;33.1;;
69917;SDS011;57203;42.672;23.334;2024-03-02T06:08:55;69.4;;;32.5;;
69917;SDS011;57203;42.672;23.334;2024-03-02T06:09:56;66.0;;;31.6;;